createdAt,value
2022-11-23T06:07:05.543Z,3.00
2022-11-23T06:09:49.357Z,3.00
2022-11-23T06:12:21.465Z,2.70
2022-11-23T06:14:49.571Z,2.60
2022-11-23T06:17:18.869Z,2.60
2022-11-23T06:20:10.011Z,2.20
2022-11-23T06:22:42.600Z,2.00
2022-11-23T06:25:09.966Z,2.10
2022-11-23T06:27:56.184Z,2.40
2022-11-23T06:30:26.143Z,2.50
2022-11-23T06:32:54.295Z,2.20
2022-11-23T06:35:22.007Z,2.20
2022-11-23T06:37:50.480Z,2.70
2022-11-23T06:40:17.534Z,2.30
2022-11-23T06:42:45.509Z,2.30
2022-11-23T06:45:19.572Z,3.00
2022-11-23T06:47:47.682Z,2.20
2022-11-23T06:50:15.187Z,1.70
2022-11-23T06:52:43.592Z,2.60
2022-11-23T06:55:10.595Z,2.70
2022-11-23T06:57:38.173Z,2.10
2022-11-23T07:00:06.250Z,2.30
2022-11-23T07:02:36.544Z,2.20
2022-11-23T07:05:04.035Z,2.20
2022-11-23T07:07:32.179Z,2.50
2022-11-23T07:10:09.064Z,1.90
2022-11-23T07:12:44.390Z,2.30
2022-11-23T07:15:13.861Z,2.30
2022-11-23T07:17:41.413Z,2.90
2022-11-23T07:20:10.595Z,1.90
2022-11-23T07:22:38.534Z,2.50
2022-11-23T07:25:06.376Z,2.80
2022-11-23T07:27:33.855Z,2.30
2022-11-23T07:30:01.719Z,3.10
2022-11-23T07:32:28.997Z,2.10
2022-11-23T07:34:57.248Z,2.40
2022-11-23T07:37:25.518Z,2.50
2022-11-23T18:40:05.768Z,11.40
2022-11-23T18:42:33.016Z,10.40
2022-11-23T18:45:01.184Z,8.70
2022-11-23T18:47:28.206Z,7.80
2022-11-23T18:49:55.433Z,9.20
2022-11-23T18:58:35.326Z,11.10
2022-11-23T19:01:13.115Z,10.10
2022-11-23T19:03:41.821Z,9.40
2022-11-23T19:06:08.984Z,8.90
2022-11-23T19:08:40.547Z,9.60
2022-11-23T19:11:09.269Z,9.20
2022-11-23T19:13:38.058Z,7.00
2022-11-23T19:16:12.816Z,7.70
2022-11-23T19:18:40.051Z,9.10
2022-11-23T19:21:21.188Z,8.40
2022-11-23T19:23:50.148Z,9.60
2022-11-23T19:26:17.865Z,9.10
2022-11-23T19:28:45.465Z,8.70
2022-11-23T19:31:17.143Z,8.80
2022-11-23T19:33:44.692Z,9.00
2022-11-23T19:36:19.118Z,10.00
2022-11-23T19:38:46.032Z,10.20
2022-11-23T19:41:14.888Z,8.10
2022-11-23T19:43:42.859Z,8.50
2022-11-23T19:46:11.608Z,9.30
2022-11-23T19:48:39.202Z,7.60
2022-11-23T19:51:08.094Z,7.80
2022-11-23T19:53:36.161Z,8.80
2022-11-23T19:56:07.556Z,8.40
2022-11-23T19:58:35.197Z,8.60
2022-11-23T20:01:05.988Z,9.90
2022-11-23T20:03:34.833Z,8.80
2022-11-23T20:06:03.916Z,7.90
2022-11-23T20:08:32.598Z,6.70
2022-11-23T20:11:05.547Z,6.40
2022-11-23T20:13:34.543Z,6.40
2022-11-23T20:16:13.112Z,6.90
2022-11-23T20:18:41.667Z,6.60
2022-11-23T20:21:16.147Z,7.20
2022-11-23T20:23:43.737Z,7.30
2022-11-23T20:26:15.184Z,8.60
2022-11-23T20:28:42.685Z,7.20
2022-11-23T20:31:19.636Z,7.50
2022-11-23T20:33:48.026Z,6.90
2022-11-23T20:36:16.640Z,6.70
2022-11-23T20:38:43.924Z,6.70
2022-11-23T20:41:26.887Z,7.20
2022-11-23T20:44:01.243Z,5.90
2022-11-23T20:46:59.903Z,6.10
2022-11-23T20:49:17.495Z,6.20
2022-11-23T20:51:44.451Z,5.00
2022-11-23T20:54:11.289Z,6.20
2022-11-23T20:56:39.556Z,7.30
2022-11-23T20:59:06.445Z,6.70
2022-11-23T21:01:33.481Z,6.10
2022-11-23T21:04:00.635Z,7.00
2022-11-23T21:06:27.807Z,6.30
2022-11-23T21:08:55.027Z,6.40
2022-11-23T21:11:42.597Z,7.30
2022-11-23T21:14:20.152Z,6.60
2022-11-23T21:16:55.289Z,5.50
2022-11-23T21:19:27.558Z,5.90
2022-11-23T21:21:54.871Z,6.10
2022-11-23T21:24:21.994Z,6.10
2022-11-23T21:26:49.270Z,6.40
2022-11-23T21:29:17.034Z,7.40
2022-11-23T21:31:45.355Z,6.60
2022-11-23T21:34:18.456Z,6.60
2022-11-23T21:36:45.881Z,5.70
2022-11-23T21:39:13.148Z,6.50
2022-11-23T21:41:40.112Z,6.60
2022-11-23T21:44:07.581Z,7.60
2022-11-23T21:46:37.315Z,5.90
2022-11-23T21:49:04.288Z,6.70
2022-11-23T21:51:32.591Z,6.00
2022-11-23T21:54:00.903Z,6.00
2022-11-23T21:56:28.573Z,5.60
2022-11-23T21:58:55.902Z,6.40
2022-11-23T22:01:25.138Z,7.30
2022-11-23T22:03:56.560Z,6.80
2022-11-23T22:06:23.811Z,7.70
2022-11-23T22:08:52.201Z,7.00
2022-11-23T22:11:25.288Z,6.80
2022-11-23T22:13:53.859Z,7.40
2022-11-23T22:16:22.604Z,7.50
2022-11-23T22:18:55.142Z,7.40
2022-11-23T22:21:25.787Z,6.20
2022-11-23T22:23:53.516Z,5.60
2022-11-23T22:26:21.373Z,5.80
2022-11-23T22:28:50.169Z,5.60
2022-11-23T22:31:21.978Z,6.00
2022-11-23T22:33:49.554Z,6.70
2022-11-23T22:36:18.292Z,7.20
2022-11-23T22:38:45.532Z,6.60
2022-11-23T22:41:14.343Z,6.60
2022-11-23T22:43:41.681Z,7.10
2022-11-23T22:46:12.228Z,5.90
2022-11-23T22:48:39.948Z,6.10
2022-11-23T22:51:07.965Z,5.80
2022-11-23T22:53:34.970Z,4.70
2022-11-23T22:56:03.342Z,5.00
2022-11-23T22:58:31.411Z,5.50
2022-11-23T23:01:04.117Z,5.30
2022-11-23T23:03:31.638Z,5.90
2022-11-23T23:06:00.033Z,5.20
2022-11-23T23:08:27.280Z,5.80
2022-11-23T23:10:55.041Z,6.00
2022-11-23T23:13:22.704Z,5.50
2022-11-23T23:15:49.926Z,5.50
2022-11-23T23:18:18.905Z,5.40
2022-11-23T23:20:46.398Z,5.20
2022-11-23T23:23:14.167Z,5.30
2022-11-23T23:25:43.533Z,4.60
2022-11-23T23:28:10.782Z,5.20
2022-11-23T23:30:37.988Z,5.30
2022-11-23T23:33:05.216Z,5.70
2022-11-23T23:35:35.742Z,5.80
2022-11-23T23:38:02.690Z,5.10
2022-11-23T23:40:29.775Z,5.30
2022-11-23T23:42:58.624Z,5.40
2022-11-23T23:45:25.607Z,5.80
2022-11-23T23:47:52.620Z,6.60
2022-11-23T23:50:20.427Z,6.10
2022-11-23T23:52:47.440Z,5.60
2022-11-23T23:55:14.780Z,5.10
2022-11-23T23:57:42.950Z,5.10
